EmailTwitter


Observations de surface / Québec / EGYD

Régions: Québec | Canada | États-Unis | Europe | France | UK | Elsewhere
Station
Affichage
Infos & localisation pour EGYD | Aide pour décoder les METARs

Observations prises le 2017-05-26 à 00H50 UTC à CRANWELL RAF, UK (EGYD)

Température: 13.0 Celsius

Point de rosée: 12.0 Celsius

Humidité relative: 94%

Vents: Sud-est à 9 km/h ou 5 noeuds.

Pression au niveau moyen de la mer: 102.20 kilopascals.

Visibilité horizontale: 6.21 milles terrestres ou 9.94 kilomètres.

Observation METAR:

EGYD 260050Z AUTO 14005KT 9999 // NCD 13/12 Q1022=